createdAt,value
2023-02-04T00:01:41.658Z,5.80
2023-02-04T00:04:08.042Z,5.00
2023-02-04T00:06:34.524Z,5.30
2023-02-04T00:09:01.169Z,5.10
2023-02-04T00:11:27.850Z,3.00
2023-02-04T00:13:54.310Z,2.80
2023-02-04T00:16:20.907Z,2.50
2023-02-04T00:18:47.422Z,2.70
2023-02-04T00:21:13.834Z,2.50
2023-02-04T00:23:41.511Z,3.20
2023-02-04T00:26:08.367Z,2.60
2023-02-04T00:28:35.075Z,2.70
2023-02-04T00:31:01.737Z,3.20
2023-02-04T00:33:28.396Z,3.60
2023-02-04T00:35:54.902Z,4.00
2023-02-04T00:38:21.706Z,5.00
2023-02-04T00:40:48.209Z,4.30
2023-02-04T00:43:14.747Z,4.40
2023-02-04T00:45:41.258Z,4.10
2023-02-04T00:48:07.825Z,3.10
2023-02-04T00:50:34.297Z,3.40
2023-02-04T00:53:00.777Z,3.80
2023-02-04T00:55:27.747Z,3.80
2023-02-04T00:57:54.391Z,3.80
2023-02-04T01:00:21.172Z,3.70
2023-02-04T01:02:47.624Z,3.10
2023-02-04T01:05:14.115Z,3.40
2023-02-04T01:07:40.693Z,2.60
2023-02-04T01:10:07.296Z,2.20
2023-02-04T01:12:34.070Z,2.10
2023-02-04T01:15:00.818Z,2.10
2023-02-04T01:17:27.386Z,2.40
2023-02-04T01:19:53.880Z,2.20
2023-02-04T01:22:20.981Z,2.40
2023-02-04T01:24:47.392Z,2.30
2023-02-04T01:27:13.943Z,2.20
2023-02-04T01:29:40.380Z,2.30
2023-02-04T01:32:06.940Z,2.50
2023-02-04T01:34:33.623Z,2.20
2023-02-04T01:37:00.108Z,2.10
2023-02-04T01:39:26.963Z,2.00
2023-02-04T01:41:53.634Z,2.10
2023-02-04T01:44:20.699Z,1.80
2023-02-04T01:46:47.241Z,1.50
2023-02-04T01:49:14.094Z,1.50
2023-02-04T01:51:40.835Z,1.20
2023-02-04T01:54:12.027Z,1.80
2023-02-04T01:56:40.885Z,1.80
2023-02-04T01:59:15.995Z,1.50
2023-02-04T02:01:48.564Z,1.10
2023-02-04T02:04:18.197Z,1.50
2023-02-04T02:06:49.704Z,1.70
2023-02-04T02:11:43.346Z,1.70
2023-02-04T02:14:10.191Z,1.60
2023-02-04T02:16:36.945Z,1.30
2023-02-04T02:19:05.727Z,1.30
2023-02-04T02:21:41.013Z,1.30
2023-02-04T02:24:27.499Z,1.40
2023-02-04T02:26:56.455Z,1.20
2023-02-04T02:29:23.929Z,1.20
2023-02-04T02:31:50.747Z,1.10
2023-02-04T02:34:18.041Z,1.30
2023-02-04T02:36:45.462Z,1.50
2023-02-04T02:39:12.056Z,2.10
2023-02-04T02:41:38.574Z,2.00
2023-02-04T02:44:05.415Z,1.80
2023-02-04T02:46:31.845Z,2.00
2023-02-04T02:48:58.446Z,2.70
2023-02-04T02:51:24.997Z,1.70
2023-02-04T02:53:51.736Z,1.50
2023-02-04T02:56:19.985Z,2.30
2023-02-04T02:58:47.122Z,1.70
2023-02-04T03:01:13.975Z,1.90
2023-02-04T03:03:48.124Z,1.30
2023-02-04T03:06:26.441Z,1.50
2023-02-04T03:08:55.599Z,1.40
2023-02-04T03:11:22.958Z,1.70
2023-02-04T03:13:51.258Z,2.00
2023-02-04T03:16:18.173Z,2.30
2023-02-04T03:18:44.936Z,0.90
2023-02-04T03:21:11.549Z,1.50
2023-02-04T03:23:38.504Z,1.00
2023-02-04T03:26:05.781Z,0.80
2023-02-04T03:28:33.271Z,0.80
2023-02-04T03:30:59.938Z,0.60
2023-02-04T03:33:28.414Z,0.70
2023-02-04T03:35:54.998Z,0.80
2023-02-04T03:38:21.440Z,0.70
2023-02-04T03:40:47.954Z,0.80
2023-02-04T03:43:14.601Z,0.60
2023-02-04T03:45:45.674Z,0.50
2023-02-04T03:50:38.920Z,0.50
2023-02-04T03:53:05.578Z,0.80
2023-02-04T03:55:32.092Z,0.80
2023-02-04T03:57:58.715Z,1.10
2023-02-04T04:00:25.414Z,0.90
2023-02-04T04:02:52.273Z,0.90
2023-02-04T04:05:19.295Z,1.30
2023-02-04T04:07:45.953Z,1.10
2023-02-04T04:10:12.897Z,1.30
2023-02-04T04:12:39.432Z,1.20
2023-02-04T04:15:06.692Z,1.40
2023-02-04T04:17:33.214Z,2.10
2023-02-04T04:19:59.655Z,1.70
2023-02-04T04:22:26.396Z,1.90
2023-02-04T04:24:53.201Z,2.30
2023-02-04T04:27:19.677Z,2.10
2023-02-04T04:29:46.135Z,1.70
2023-02-04T04:32:12.668Z,1.80
2023-02-04T04:34:39.079Z,2.20
2023-02-04T04:37:05.728Z,2.90
2023-02-04T04:39:32.215Z,2.80
2023-02-04T04:41:58.707Z,2.80
2023-02-04T04:44:25.285Z,2.90
2023-02-04T04:46:51.943Z,3.60
2023-02-04T04:49:18.375Z,3.20
2023-02-04T04:51:44.899Z,1.40
2023-02-04T04:54:11.347Z,1.70
2023-02-04T04:56:37.782Z,1.90
2023-02-04T04:59:04.835Z,1.80
2023-02-04T05:01:31.540Z,2.00
2023-02-04T05:03:58.187Z,2.20
2023-02-04T05:06:25.465Z,2.80
2023-02-04T05:08:52.700Z,3.00
2023-02-04T05:11:19.402Z,2.90
2023-02-04T05:13:46.705Z,3.20
2023-02-04T05:16:13.468Z,2.60
2023-02-04T05:18:41.035Z,3.00
2023-02-04T05:21:08.591Z,1.70
2023-02-04T05:23:35.424Z,2.00
2023-02-04T05:26:01.813Z,1.10
2023-02-04T05:28:28.407Z,1.60
2023-02-04T05:30:54.872Z,3.20
2023-02-04T05:33:21.377Z,2.30
2023-02-04T05:35:49.852Z,3.10
2023-02-04T05:38:16.442Z,3.40
2023-02-04T05:40:42.871Z,4.30
2023-02-04T05:43:09.306Z,4.40
2023-02-04T05:45:35.898Z,5.40
2023-02-04T05:48:02.467Z,6.10
2023-02-04T05:50:28.909Z,5.60
2023-02-04T05:52:55.332Z,6.70
2023-02-04T05:55:21.761Z,7.40
2023-02-04T05:57:48.419Z,7.60
2023-02-04T06:00:15.107Z,7.60
2023-02-04T06:02:41.810Z,6.90
2023-02-04T06:05:08.790Z,6.20
2023-02-04T06:07:35.956Z,6.00
2023-02-04T06:10:02.698Z,6.30
2023-02-04T06:12:29.295Z,5.40
2023-02-04T06:14:55.694Z,7.40
2023-02-04T06:17:22.116Z,6.70
2023-02-04T06:19:48.739Z,6.70
2023-02-04T06:22:15.172Z,5.90
2023-02-04T06:24:41.700Z,6.00
2023-02-04T06:27:08.341Z,5.80
2023-02-04T06:29:34.874Z,6.30
2023-02-04T06:32:01.516Z,6.40
2023-02-04T06:34:28.395Z,5.90
2023-02-04T06:36:54.904Z,6.70
2023-02-04T06:39:21.313Z,7.50
2023-02-04T06:41:47.780Z,6.30
2023-02-04T06:44:14.326Z,7.00
2023-02-04T06:46:40.827Z,7.80
2023-02-04T06:49:07.711Z,7.90
2023-02-04T06:51:34.264Z,17.30
2023-02-04T06:54:01.102Z,11.30
2023-02-04T06:56:27.577Z,7.60
2023-02-04T06:58:54.076Z,7.10
2023-02-04T07:01:20.526Z,7.00
2023-02-04T07:03:47.056Z,6.50
2023-02-04T07:06:13.696Z,7.80
2023-02-04T07:08:40.111Z,8.50
2023-02-04T07:11:06.903Z,7.80
2023-02-04T07:13:33.417Z,8.10
2023-02-04T07:15:59.959Z,9.50
2023-02-04T07:18:26.603Z,16.70
2023-02-04T07:20:53.122Z,8.00
2023-02-04T07:23:19.765Z,10.90
2023-02-04T07:25:46.307Z,11.80
2023-02-04T07:28:12.808Z,7.40
2023-02-04T07:30:39.508Z,12.40
2023-02-04T07:33:06.128Z,7.50
2023-02-04T07:35:32.588Z,7.30
2023-02-04T07:37:58.995Z,7.20
2023-02-04T07:40:25.470Z,8.60
2023-02-04T07:42:52.162Z,6.20
2023-02-04T07:45:18.637Z,6.70
2023-02-04T07:47:45.243Z,7.40
2023-02-04T07:50:11.867Z,8.20
2023-02-04T07:52:38.414Z,7.40
2023-02-04T07:55:06.640Z,8.00
2023-02-04T07:57:33.185Z,8.30
2023-02-04T08:00:00.111Z,8.60
2023-02-04T08:02:27.494Z,7.90
2023-02-04T08:04:54.177Z,7.10
2023-02-04T08:07:20.657Z,9.10
2023-02-04T08:09:47.161Z,6.90
2023-02-04T08:12:13.891Z,9.80
2023-02-04T08:14:40.298Z,7.50
2023-02-04T08:17:06.758Z,9.20
2023-02-04T08:19:33.530Z,7.40
2023-02-04T08:22:00.021Z,9.60
2023-02-04T08:24:26.473Z,9.00
2023-02-04T08:26:53.064Z,8.80
2023-02-04T08:29:20.092Z,28.40
2023-02-04T08:31:47.083Z,14.80
2023-02-04T08:34:13.617Z,8.00
2023-02-04T08:36:40.096Z,8.10
2023-02-04T08:39:06.714Z,9.80
2023-02-04T08:41:33.170Z,8.20
2023-02-04T08:43:59.618Z,7.60
2023-02-04T08:46:26.291Z,9.00
2023-02-04T08:48:52.809Z,10.40
2023-02-04T08:51:19.252Z,8.80
2023-02-04T08:53:49.330Z,11.30
2023-02-04T08:56:15.781Z,10.40
2023-02-04T08:58:43.467Z,10.30
2023-02-04T09:01:10.447Z,10.60
2023-02-04T09:03:37.890Z,12.40
2023-02-04T09:06:06.165Z,11.90
2023-02-04T09:08:32.840Z,9.80
2023-02-04T09:10:59.350Z,10.50
2023-02-04T09:13:25.875Z,13.70
2023-02-04T09:15:54.039Z,10.10
2023-02-04T09:18:21.045Z,8.00
2023-02-04T09:20:48.787Z,10.50
2023-02-04T09:23:16.135Z,8.30
2023-02-04T09:25:44.227Z,12.60
2023-02-04T09:28:12.022Z,9.80
2023-02-04T09:30:39.853Z,9.20
2023-02-04T09:33:07.040Z,6.70
2023-02-04T09:35:33.528Z,7.50
2023-02-04T09:38:00.029Z,6.70
2023-02-04T09:40:28.507Z,7.20
2023-02-04T09:42:56.668Z,6.10
2023-02-04T09:45:29.877Z,6.10
2023-02-04T09:47:59.151Z,6.40
2023-02-04T09:50:28.226Z,12.30
2023-02-04T09:52:59.126Z,10.50
2023-02-04T09:55:30.341Z,15.70
2023-02-04T09:57:56.837Z,13.10
2023-02-04T10:00:26.910Z,5.80
2023-02-04T10:02:53.545Z,4.60
2023-02-04T10:05:30.936Z,9.10
2023-02-04T10:07:58.771Z,8.60
2023-02-04T10:10:27.592Z,12.60
2023-02-04T10:12:58.800Z,9.40
2023-02-04T10:15:26.307Z,7.60
2023-02-04T10:17:58.680Z,5.70
2023-02-04T10:20:25.527Z,5.80
2023-02-04T10:22:54.220Z,4.40
2023-02-04T10:25:23.810Z,6.40
2023-02-04T10:27:55.958Z,6.60
2023-02-04T10:30:27.309Z,5.60
2023-02-04T10:32:54.639Z,5.60
2023-02-04T10:35:22.855Z,5.70
2023-02-04T10:38:03.826Z,6.10
2023-02-04T10:40:32.974Z,5.50
2023-02-04T10:43:00.254Z,6.60
2023-02-04T10:45:29.978Z,6.80
2023-02-04T10:47:57.411Z,6.50
2023-02-04T10:50:26.392Z,7.00
2023-02-04T10:52:58.800Z,6.40
2023-02-04T10:55:25.278Z,7.10
2023-02-04T10:57:52.861Z,6.30
2023-02-04T11:00:20.745Z,6.90
2023-02-04T11:03:05.059Z,7.80
2023-02-04T11:05:34.338Z,6.60
2023-02-04T11:08:02.181Z,10.60
2023-02-04T11:10:31.842Z,8.00
2023-02-04T11:12:58.592Z,8.10
2023-02-04T11:15:44.868Z,9.50
2023-02-04T11:18:13.329Z,8.60
2023-02-04T11:20:40.485Z,8.30
2023-02-04T11:23:25.711Z,6.60
2023-02-04T11:26:07.663Z,6.80
2023-02-04T11:28:55.914Z,6.70
2023-02-04T11:31:22.418Z,5.90
2023-02-04T11:33:50.955Z,6.00
2023-02-04T11:36:18.010Z,6.80
2023-02-04T11:38:47.245Z,7.90
2023-02-04T11:41:28.820Z,6.60
2023-02-04T11:46:23.913Z,8.30
2023-02-04T11:48:55.144Z,10.20
2023-02-04T11:51:28.743Z,10.00
2023-02-04T11:53:55.482Z,10.90
2023-02-04T11:56:23.474Z,10.60
2023-02-04T11:58:51.344Z,9.20
2023-02-04T12:01:19.793Z,9.50
2023-02-04T12:03:48.977Z,8.10
2023-02-04T12:06:23.784Z,8.50
2023-02-04T12:08:50.515Z,7.10
2023-02-04T12:11:29.387Z,5.80
2023-02-04T12:13:58.392Z,6.60
2023-02-04T12:16:25.662Z,7.30
2023-02-04T12:18:52.201Z,6.70
2023-02-04T12:21:19.078Z,8.40
2023-02-04T12:23:45.506Z,8.10
2023-02-04T12:26:12.565Z,9.80
2023-02-04T12:28:39.100Z,7.50
2023-02-04T12:31:05.658Z,7.50
2023-02-04T12:33:32.478Z,7.50
2023-02-04T12:35:59.117Z,8.50
2023-02-04T12:38:25.593Z,9.10
2023-02-04T12:40:52.200Z,7.10
2023-02-04T12:43:18.744Z,6.60
2023-02-04T12:45:45.196Z,5.90
2023-02-04T12:48:12.475Z,5.70
2023-02-04T12:50:39.072Z,4.90
2023-02-04T12:53:05.508Z,4.60
2023-02-04T12:55:32.761Z,4.90
2023-02-04T12:57:59.460Z,5.90
2023-02-04T13:00:25.939Z,5.10
2023-02-04T13:02:52.377Z,6.10
2023-02-04T13:05:18.912Z,5.60
2023-02-04T13:07:45.345Z,4.90
2023-02-04T13:10:15.163Z,5.70
2023-02-04T13:12:41.829Z,5.40
2023-02-04T13:15:09.272Z,4.80
2023-02-04T13:17:36.325Z,4.00
2023-02-04T13:20:03.680Z,7.60
2023-02-04T13:22:30.333Z,7.20
2023-02-04T13:24:56.826Z,5.60
2023-02-04T13:27:23.404Z,6.90
2023-02-04T13:29:49.864Z,5.50
2023-02-04T13:32:16.379Z,5.00
2023-02-04T13:34:42.801Z,4.90
2023-02-04T13:37:09.253Z,4.50
2023-02-04T13:39:35.702Z,5.10
2023-02-04T13:42:04.376Z,3.80
2023-02-04T13:44:30.981Z,5.80
2023-02-04T13:46:57.595Z,4.50
2023-02-04T13:49:24.113Z,3.50
2023-02-04T13:51:50.577Z,3.30
2023-02-04T13:54:17.040Z,3.80
2023-02-04T13:56:43.511Z,5.50
2023-02-04T13:59:10.156Z,4.00
2023-02-04T14:01:36.695Z,3.70
2023-02-04T14:04:03.642Z,4.10
2023-02-04T14:06:30.139Z,4.20
2023-02-04T14:08:56.719Z,4.40
2023-02-04T14:11:23.154Z,3.50
2023-02-04T14:13:49.592Z,4.20
2023-02-04T14:16:16.360Z,3.10
2023-02-04T14:18:42.882Z,4.50
2023-02-04T14:21:09.403Z,3.70
2023-02-04T14:23:36.045Z,4.40
2023-02-04T14:26:02.697Z,4.90
2023-02-04T14:28:29.432Z,3.40
2023-02-04T14:30:55.995Z,3.90
2023-02-04T14:33:23.028Z,3.70
2023-02-04T14:35:49.565Z,2.60
2023-02-04T14:38:16.114Z,4.20
2023-02-04T14:40:44.884Z,3.30
2023-02-04T14:43:12.262Z,3.90
2023-02-04T14:45:39.973Z,3.70
2023-02-04T14:48:07.166Z,5.00
2023-02-04T14:50:34.314Z,3.70
2023-02-04T14:53:01.180Z,4.20
2023-02-04T14:55:27.719Z,5.00
2023-02-04T14:57:54.387Z,4.40
2023-02-04T15:00:21.507Z,3.80
2023-02-04T15:02:48.048Z,3.70
2023-02-04T15:05:14.993Z,3.80
2023-02-04T15:07:41.742Z,4.30
2023-02-04T15:10:09.864Z,4.20
2023-02-04T15:12:36.661Z,4.60
2023-02-04T15:15:04.529Z,4.30
2023-02-04T15:17:31.172Z,4.90
2023-02-04T15:19:57.811Z,4.50
2023-02-04T15:22:24.326Z,5.50
2023-02-04T15:24:50.895Z,6.50
2023-02-04T15:27:17.573Z,5.30
2023-02-04T15:29:44.166Z,5.40
2023-02-04T15:32:10.711Z,5.10
2023-02-04T15:34:37.256Z,6.20
2023-02-04T15:37:03.933Z,5.80
2023-02-04T15:39:30.582Z,6.50
2023-02-04T15:41:57.284Z,5.70
2023-02-04T15:44:23.947Z,5.00
2023-02-04T15:46:50.571Z,6.00
2023-02-04T15:49:16.971Z,9.40
2023-02-04T15:51:43.432Z,6.50
2023-02-04T15:54:09.974Z,6.00
2023-02-04T15:56:36.503Z,7.50
2023-02-04T15:59:03.157Z,5.70
2023-02-04T16:01:29.934Z,5.80
2023-02-04T16:03:56.386Z,5.00
2023-02-04T16:06:23.802Z,5.40
2023-02-04T16:08:50.338Z,10.50
2023-02-04T16:11:17.005Z,11.40
2023-02-04T16:13:43.517Z,16.90
2023-02-04T16:16:09.973Z,12.70
2023-02-04T16:18:36.597Z,18.10
2023-02-04T16:21:03.249Z,43.60
2023-02-04T16:23:29.675Z,11.40
2023-02-04T16:25:56.316Z,26.90
2023-02-04T16:28:22.820Z,12.80
2023-02-04T16:30:49.600Z,24.10
2023-02-04T16:33:16.166Z,13.30
2023-02-04T16:35:58.348Z,11.60
2023-02-04T16:38:25.284Z,18.70
2023-02-04T16:40:52.025Z,9.30
2023-02-04T16:43:18.577Z,16.30
2023-02-04T16:45:45.024Z,11.50
2023-02-04T16:48:11.751Z,9.30
2023-02-04T16:50:38.395Z,10.10
2023-02-04T16:53:05.335Z,11.50
2023-02-04T16:55:32.638Z,14.10
2023-02-04T16:57:59.706Z,8.90
2023-02-04T17:00:26.483Z,9.50
2023-02-04T17:02:53.070Z,9.80
2023-02-04T17:05:20.067Z,8.10
2023-02-04T17:07:46.609Z,8.60
2023-02-04T17:10:13.250Z,8.00
2023-02-04T17:12:39.703Z,8.40
2023-02-04T17:15:06.838Z,7.00
2023-02-04T17:17:33.372Z,6.80
2023-02-04T17:19:59.926Z,6.10
2023-02-04T17:22:26.447Z,7.10
2023-02-04T17:24:53.205Z,6.00
2023-02-04T17:27:19.692Z,6.50
2023-02-04T17:29:46.127Z,7.40
2023-02-04T17:32:12.522Z,6.40
2023-02-04T17:34:39.065Z,6.90
2023-02-04T17:37:05.522Z,5.50
2023-02-04T17:39:31.981Z,8.30
2023-02-04T17:41:58.480Z,6.60
2023-02-04T17:44:27.109Z,6.70
2023-02-04T17:46:54.517Z,6.60
2023-02-04T17:49:21.166Z,5.10
2023-02-04T17:51:47.908Z,9.30
2023-02-04T17:54:14.748Z,6.80
2023-02-04T17:56:41.393Z,9.00
2023-02-04T17:59:11.325Z,8.40
2023-02-04T18:01:38.433Z,8.90
2023-02-04T18:04:11.630Z,10.20
2023-02-04T18:06:38.197Z,7.90
2023-02-04T18:09:14.875Z,8.40
2023-02-04T18:11:41.743Z,7.50
2023-02-04T18:14:16.268Z,10.30
2023-02-04T18:16:44.153Z,8.30
2023-02-04T18:19:28.374Z,12.40
2023-02-04T18:21:55.709Z,10.30
2023-02-04T18:24:34.764Z,8.30
2023-02-04T18:27:08.650Z,8.30
2023-02-04T18:29:44.019Z,13.20
2023-02-04T18:32:25.795Z,8.20
2023-02-04T18:34:54.977Z,7.60
2023-02-04T18:37:32.315Z,7.10
2023-02-04T18:40:10.824Z,14.30
2023-02-04T18:42:39.996Z,11.20
2023-02-04T18:45:31.254Z,12.30
2023-02-04T18:48:00.743Z,10.20
2023-02-04T18:50:30.674Z,12.70
2023-02-04T18:53:23.312Z,10.20
2023-02-04T18:55:52.001Z,15.70
2023-02-04T18:58:27.760Z,10.40
2023-02-04T19:01:20.415Z,10.40
2023-02-04T19:03:50.508Z,17.20
2023-02-04T19:06:30.090Z,19.20
2023-02-04T19:09:10.431Z,12.50
2023-02-04T19:11:40.675Z,14.00
2023-02-04T19:14:26.032Z,13.30
2023-02-04T19:16:54.219Z,35.30
2023-02-04T19:19:55.787Z,9.60
2023-02-04T19:22:45.870Z,22.20
2023-02-04T19:25:24.781Z,10.90
2023-02-04T19:27:55.170Z,10.50
2023-02-04T19:30:28.178Z,10.60
2023-02-04T19:32:59.486Z,7.30
2023-02-04T19:35:35.422Z,21.60
2023-02-04T19:38:29.292Z,7.60
2023-02-04T19:40:55.938Z,8.30
2023-02-04T19:43:34.252Z,9.10
2023-02-04T19:46:02.185Z,12.30
2023-02-04T19:48:37.850Z,6.90
2023-02-04T19:51:21.119Z,6.50
2023-02-04T19:53:48.868Z,8.60
2023-02-04T19:56:41.796Z,7.60
2023-02-04T19:59:24.154Z,6.70
2023-02-04T20:02:23.875Z,8.70
2023-02-04T20:04:53.994Z,7.50
2023-02-04T20:07:26.201Z,9.90
2023-02-04T20:10:22.515Z,8.40
2023-02-04T20:12:52.326Z,7.70
2023-02-04T20:15:21.115Z,8.40
2023-02-04T20:17:49.706Z,9.00
2023-02-04T20:20:31.716Z,7.90
2023-02-04T20:23:17.678Z,11.20
2023-02-04T20:25:47.439Z,11.10
2023-02-04T20:28:36.897Z,8.80
2023-02-04T20:31:17.021Z,11.60
2023-02-04T20:33:53.728Z,10.80
2023-02-04T20:36:26.200Z,14.10
2023-02-04T20:39:16.952Z,7.20
2023-02-04T20:41:43.593Z,8.80
2023-02-04T20:44:23.205Z,5.80
2023-02-04T20:46:49.745Z,4.60
2023-02-04T20:49:24.800Z,3.90
2023-02-04T20:51:58.934Z,4.00
2023-02-04T20:54:29.543Z,4.50
2023-02-04T20:57:11.460Z,5.20
2023-02-04T20:59:37.977Z,5.20
2023-02-04T21:02:18.550Z,4.60
2023-02-04T21:04:45.312Z,4.00
2023-02-04T21:07:20.743Z,4.40
2023-02-04T21:09:47.807Z,4.00
2023-02-04T21:12:15.366Z,4.00
2023-02-04T21:14:42.405Z,5.50
2023-02-04T21:17:09.066Z,5.60
2023-02-04T21:19:35.572Z,8.60
2023-02-04T21:22:02.555Z,8.80
2023-02-04T21:24:29.480Z,11.00
2023-02-04T21:26:55.922Z,8.40
2023-02-04T21:29:22.850Z,7.70
2023-02-04T21:31:49.936Z,8.80
2023-02-04T21:34:16.381Z,10.10
2023-02-04T21:36:42.900Z,10.20
2023-02-04T21:39:09.648Z,10.80
2023-02-04T21:41:36.066Z,10.20
2023-02-04T21:44:02.625Z,12.60
2023-02-04T21:46:29.088Z,13.10
2023-02-04T21:48:55.904Z,11.90
2023-02-04T21:51:22.551Z,11.90
2023-02-04T21:53:49.088Z,12.40
2023-02-04T21:56:15.623Z,12.10
2023-02-04T21:58:42.204Z,11.10
2023-02-04T22:01:08.656Z,13.40
2023-02-04T22:03:35.169Z,12.70
2023-02-04T22:06:01.804Z,11.10
2023-02-04T22:08:28.318Z,11.20
2023-02-04T22:10:54.849Z,10.80
2023-02-04T22:13:21.480Z,11.20
2023-02-04T22:15:48.165Z,11.30
2023-02-04T22:18:14.888Z,10.90
2023-02-04T22:20:41.670Z,10.90
2023-02-04T22:23:08.502Z,10.50
2023-02-04T22:25:35.333Z,10.50
2023-02-04T22:28:02.153Z,9.80
2023-02-04T22:30:28.692Z,11.30
2023-02-04T22:32:55.257Z,10.10
2023-02-04T22:35:21.988Z,11.70
2023-02-04T22:37:48.449Z,9.90
2023-02-04T22:40:14.959Z,8.90
2023-02-04T22:42:41.555Z,10.90
2023-02-04T22:45:08.753Z,11.00
2023-02-04T22:47:35.267Z,9.20
2023-02-04T22:50:01.823Z,9.00
2023-02-04T22:52:28.412Z,10.20
2023-02-04T22:54:54.876Z,8.60
2023-02-04T22:57:21.441Z,8.80
2023-02-04T22:59:47.954Z,9.20
2023-02-04T23:02:14.432Z,8.30
2023-02-04T23:04:43.604Z,9.10
2023-02-04T23:07:11.598Z,9.40
2023-02-04T23:09:38.017Z,8.60
2023-02-04T23:12:05.145Z,8.30
2023-02-04T23:14:31.608Z,7.80
2023-02-04T23:16:58.130Z,7.90
2023-02-04T23:19:24.583Z,9.00
2023-02-04T23:21:51.084Z,7.80
2023-02-04T23:24:17.552Z,8.40
2023-02-04T23:26:44.058Z,7.30
2023-02-04T23:29:10.621Z,8.10
2023-02-04T23:31:37.081Z,7.70
2023-02-04T23:34:03.604Z,7.70
2023-02-04T23:36:30.063Z,7.70
2023-02-04T23:38:56.608Z,8.10
2023-02-04T23:41:23.098Z,7.30
2023-02-04T23:43:49.964Z,7.80
2023-02-04T23:46:16.567Z,8.10
2023-02-04T23:48:43.252Z,7.00
2023-02-04T23:51:09.671Z,7.20
2023-02-04T23:53:36.119Z,8.40
2023-02-04T23:56:03.065Z,9.90
2023-02-04T23:58:29.471Z,9.30
